CheckWX is a tool to help pilots better visualize weather data.  It is not intended as a substitute for an official pre-flight weather briefing.

03:13:48 UTC

KHVE METAR
Hanksville Airport
Hanksville, Utah, USA
Current

19 mins ago

KHVE 260255Z AUTO 00000KT 10SM CLR 20/M08 A2987 RMK AO2
Observed
May-26 @ 02:55 UTC
Visibility
10 SM
Flight Rules
VFR
Cloud Levels
  • Clear skies
Temperature
20°C / 68°F
Dewpoint
-8°C / 18°F
Humidity
14%
Altimeter
29.87" Hg
Pressure
1011.52 hPa
Previous

39 mins ago

KHVE 260235Z AUTO 00000KT 10SM CLR 21/M08 A2987 RMK AO2
Observed
May-26 @ 02:35 UTC
Visibility
10 SM
Flight Rules
VFR
Cloud Levels
  • Clear skies
Temperature
21°C / 70°F
Dewpoint
-8°C / 18°F
Humidity
13%
Altimeter
29.87" Hg
Pressure
1011.52 hPa
Previous

59 mins ago

KHVE 260215Z AUTO 00000KT 10SM CLR 21/M07 A2987 RMK AO2
Observed
May-26 @ 02:15 UTC
Visibility
10 SM
Flight Rules
VFR
Cloud Levels
  • Clear skies
Temperature
21°C / 70°F
Dewpoint
-7°C / 19°F
Humidity
15%
Altimeter
29.87" Hg
Pressure
1011.52 hPa